Latest Coastal Weather Observations for Mackay

IDQ60701

Issued at 9:21 am EST Monday 19 August 2019 (issued every 10 minutes, with the page automatically refreshed every 10 minutes)

About coastal observations | Map of coastal stations | Coastal observations for QLD | Marine services | Other Formats
Station Details ID: 033119 Name: MACKAY M.O Lat: -21.12 Lon: 149.22 Height: 30.26 m
Data from the previous 72 hours. | See also: Recent months at Mackay
Date/Time
EST
Wind Sea
Height
m
Swell Vis
km
Cloud Weather Temp
°C
Press
hPa
Rain since
9am
mm
Dir  Spd
kts
Gust
kts
Height
m
Period
s
Dir
19/09:00am SW 6 8 - - - - - - - 19.2 1019.1 0.0
19/08:30am WSW 6 8 - - - - - - - 18.0 1019.0 0.0
19/08:00am WSW 7 11 - - - - - - - 16.0 1018.6 0.0
19/07:30am WSW 8 10 - - - - - - - 14.5 1018.3 0.0
19/07:00am WSW 7 9 - - - - - - - 13.2 1018.1 0.0
19/06:30am WSW 7 9 - - - - - - - 13.1 1017.8 0.0
19/06:00am WSW 7 9 - - - - - - - 13.2 1017.7 0.0
19/05:30am WSW 7 9 - - - - - - - 13.4 1017.5 0.0
19/05:00am WSW 8 10 - - - - - - - 13.3 1017.3 0.0
19/04:30am WSW 8 10 - - - - - - - 13.5 1017.3 0.0
19/04:00am WSW 7 9 - - - - - - - 13.6 1017.2 0.0
19/03:30am WSW 7 10 - - - - - - - 13.8 1017.5 0.0
19/03:00am WSW 8 10 - - - - - - - 13.8 1017.9 0.0
19/02:30am WSW 6 8 - - - - - - - 14.2 1018.1 0.0
19/02:00am WSW 7 8 - - - - - - - 14.3 1018.4 0.0
19/01:30am WSW 6 8 - - - - - - - 14.7 1018.6 0.0
19/01:00am WSW 7 8 - - - - - - - 14.9 1018.8 0.0
19/12:30am WSW 6 7 - - - - - - - 15.0 1019.1 0.0
19/12:00am WSW 6 7 - - - - - - - 15.1 1019.3 0.0
 
Date/Time
EST
Wind Sea
Height
m
Swell Vis
km
Cloud Weather Temp
°C
Press
hPa
Rain since
9am
mm
Dir  Spd
kts
Gust
kts
Height
m
Period
s
Dir
18/11:30pm WSW 6 8 - - - - - - - 15.1 1019.3 0.0
18/11:00pm SSW 4 5 - - - - - - - 16.7 1019.1 0.0
18/10:30pm ESE 5 8 - - - - - - - 19.7 1019.0 0.0
18/10:00pm E 5 9 - - - - - - - 19.7 1019.0 0.0
18/09:30pm ENE 6 10 - - - - - - - 19.1 1019.0 0.0
18/09:00pm E 8 11 - - - - - - - 19.7 1019.0 0.0
18/08:30pm ENE 6 10 - - - - - - - 19.2 1018.8 0.0
18/08:00pm E 7 9 - - - - - - - 19.9 1018.7 0.0
18/07:30pm E 7 9 - - - - - - - 19.7 1018.3 0.0
18/07:00pm ESE 5 7 - - - - - - - 19.6 1017.8 0.0
18/06:30pm ESE 5 7 - - - - - - - 19.6 1017.5 0.0
18/06:00pm E 5 7 - - - - - - - 19.7 1017.3 0.0
18/05:30pm E 5 7 - - - - - - - 20.3 1017.2 0.0
18/05:00pm E 5 8 - - - - - - - 21.1 1017.1 0.0
18/04:30pm E 8 11 - - - - - - - 21.4 1016.8 0.0
18/04:00pm ENE 8 11 - - - - - - - 22.0 1016.9 0.0
18/03:30pm ENE 6 10 - - - - - - - 22.8 1016.8 0.0
18/03:00pm ENE 4 7 - - - - - - - 23.0 1016.8 0.0
18/02:30pm ENE 5 8 - - - - - - - 23.0 1017.2 0.0
18/02:00pm ENE 5 8 - - - - - - - 23.8 1017.7 0.0
18/01:30pm ENE 6 9 - - - - - - - 23.4 1018.2 0.0
18/01:00pm ENE 5 8 - - - - - - - 23.4 1018.4 0.0
18/12:30pm ENE 6 11 - - - - - - - 24.0 1018.7 0.0
18/12:00pm ENE 5 8 - - - - - - - 24.5 1019.0 0.0
18/11:30am ENE 7 9 - - - - - - - 23.5 1019.5 0.0
18/11:00am W 3 6 - - - - - - - 25.0 1019.8 0.0
18/10:30am SW 3 5 - - - - - - - 23.0 1020.3 0.0
18/10:00am SW 5 6 - - - - - - - 22.2 1020.8 0.0
18/09:30am SW 5 7 - - - - - - - 20.9 1021.1 0.0
18/09:00am WSW 6 8 - - - - - - - 18.9 1021.0 0.0
18/08:30am WSW 6 9 - - - - - - - 17.3 1020.9 0.0
18/08:00am WSW 7 9 - - - - - - - 15.4 1020.5 0.0
18/07:30am WSW 8 11 - - - - - - - 14.2 1020.1 0.0
18/07:00am WSW 8 11 - - - - - - - 13.4 1019.8 0.0
18/06:30am WSW 8 10 - - - - - - - 13.5 1019.5 0.0
18/06:00am WSW 8 10 - - - - - - - 13.6 1019.2 0.0
18/05:30am WSW 7 9 - - - - - - - 13.9 1018.9 0.0
18/05:00am WSW 6 8 - - - - - - - 14.1 1018.6 0.0
18/04:30am WSW 7 9 - - - - - - - 14.4 1018.4 0.0
18/04:00am WSW 7 9 - - - - - - - 14.6 1018.3 0.0
18/03:30am WSW 7 9 - - - - - - - 14.7 1018.3 0.0
18/03:00am WSW 7 9 - - - - - - - 14.9 1018.6 0.0
18/02:30am WSW 7 9 - - - - - - - 14.9 1018.7 0.0
18/02:00am WSW 7 9 - - - - - - - 15.0 1018.9 0.0
18/01:30am W 6 8 - - - - - - - 15.2 1019.1 0.0
18/01:00am WSW 6 8 - - - - - - - 15.3 1019.2 0.0
18/12:30am WSW 6 8 - - - - - - - 15.4 1019.5 0.0
18/12:00am WSW 6 8 - - - - - - - 15.4 1019.6 0.0
 
Date/Time
EST
Wind Sea
Height
m
Swell Vis
km
Cloud Weather Temp
°C
Press
hPa
Rain since
9am
mm
Dir  Spd
kts
Gust
kts
Height
m
Period
s
Dir
17/11:30pm WSW 6 8 - - - - - - - 15.4 1019.6 0.0
17/11:00pm WSW 7 8 - - - - - - - 15.8 1019.7 0.0
17/10:30pm WSW 6 8 - - - - - - - 15.5 1019.7 0.0
17/10:00pm WSW 6 7 - - - - - - - 16.1 1019.6 0.0
17/09:30pm WSW 6 8 - - - - - - - 16.9 1019.5 0.0
17/09:00pm ESE 4 5 - - - - - - - 18.9 1019.5 0.0
17/08:30pm ESE 4 6 - - - - - - - 19.1 1019.2 0.0
17/08:00pm E 3 5 - - - - - - - 19.2 1019.0 0.0
17/07:30pm E 4 7 - - - - - - - 19.6 1019.0 0.0
17/07:00pm ESE 4 6 - - - - - - - 19.5 1018.6 0.0
17/06:30pm ESE 4 8 - - - - - - - 19.5 1018.2 0.0
17/06:00pm E 6 8 - - - - - - - 19.8 1017.9 0.0
17/05:30pm ESE 5 9 - - - - - - - 20.1 1017.8 0.0
17/05:00pm ESE 6 8 - - - - - - - 20.6 1017.6 0.0
17/04:30pm ESE 6 10 - - - - - - - 21.0 1017.4 0.0
17/04:00pm SE 7 11 - - - - - - - 21.4 1017.3 0.0
17/03:30pm ESE 7 12 - - - - - Partly cloudy - 21.2 1017.3 0.0
17/03:00pm ESE 8 12 - - - - - Mostly clear - 21.8 1017.3 0.0
17/02:30pm SE 7 11 - - - - - - - 22.0 1017.5 0.0
17/02:00pm ESE 7 11 - - - - - - - 22.0 1017.9 0.0
17/01:30pm SE 7 10 - - - - - - - 21.8 1018.2 0.0
17/01:00pm SE 7 11 - - - - - - - 21.6 1018.6 0.0
17/12:30pm SE 6 9 - - - - - - - 21.8 1019.1 0.0
17/12:00pm SSE 6 9 - - - - - - - 22.0 1019.6 0.0
17/11:30am SSE 6 10 - - - - - - - 22.3 1020.3 0.0
17/11:00am SSE 6 8 - - - - - - - 21.8 1020.8 0.0
17/10:30am SSE 5 8 - - - - - - - 21.9 1020.9 0.0
17/10:00am SSE 4 7 - - - - - - - 21.7 1021.1 0.0
17/09:30am SSE 4 8 - - - - - - - 21.3 1021.1 0.0
17/09:00am SW 6 8 - - - - - - - 20.1 1021.2 0.0
17/08:30am WSW 7 8 - - - - - - - 18.4 1021.2 0.0
17/08:00am WSW 7 10 - - - - - - - 16.7 1021.2 0.0
17/07:30am WSW 7 10 - - - - - - - 15.3 1021.1 0.0
17/07:00am WSW 8 11 - - - - - - - 14.4 1020.7 0.0
17/06:30am WSW 8 12 - - - - - - - 14.1 1020.5 0.0
17/06:00am WSW 8 12 - - - - - - - 14.2 1020.2 0.0
17/05:30am WSW 8 10 - - - - - - - 14.1 1019.9 0.0
17/05:00am WSW 7 11 - - - - - - - 14.5 1019.5 0.0
17/04:30am WSW 7 10 - - - - - Partly cloudy - 14.4 1019.3 0.0
17/04:00am WSW 7 8 - - - - - Partly cloudy - 14.4 1019.4 0.0
17/03:30am WSW 6 8 - - - - - - - 14.4 1019.4 0.0
17/03:00am WSW 7 8 - - - - - - - 14.3 1019.6 0.0
17/02:30am WSW 7 8 - - - - - - - 14.6 1019.8 0.0
17/02:00am WSW 7 8 - - - - - - - 14.8 1020.0 0.0
17/01:30am WSW 7 8 - - - - - - - 14.9 1020.4 0.0
17/01:00am SW 6 7 - - - - - - - 15.1 1020.8 0.0
17/12:30am WSW 6 7 - - - - - - - 15.1 1020.9 0.0
17/12:00am WSW 5 7 - - - - - - - 15.5 1020.9 0.0
 
Date/Time
EST
Wind Sea
Height
m
Swell Vis
km
Cloud Weather Temp
°C
Press
hPa
Rain since
9am
mm
Dir  Spd
kts
Gust
kts
Height
m
Period
s
Dir
16/11:30pm S 4 8 - - - - - - - 17.2 1020.8 0.0
16/11:00pm SE 6 9 - - - - - - - 19.2 1020.7 0.0
16/10:30pm SE 6 10 - - - - - - - 19.3 1020.8 0.0
16/10:00pm ESE 6 10 - - - - - - - 19.3 1020.9 0.0
16/09:30pm ESE 7 11 - - - - - - - 19.5 1020.9 0.0
16/09:00pm ESE 7 12 - - - - - - - 19.5 1020.9 0.0
16/08:30pm ESE 7 11 - - - - - - - 19.6 1020.9 0.0
16/08:00pm ESE 6 11 - - - - - - - 19.7 1020.7 0.0
16/07:30pm ESE 6 10 - - - - - - - 19.6 1020.5 0.0
16/07:00pm ESE 6 11 - - - - - - - 19.5 1020.2 0.0
16/06:30pm SE 7 10 - - - - - - - 19.5 1020.0 0.0
16/06:00pm SE 7 12 - - - - - Mostly clear - 19.5 1019.8 0.0
16/05:30pm SE 7 11 - - - - - - - 19.8 1019.7 0.0
16/05:00pm SE 7 11 - - - - - - - 20.2 1019.6 0.0
16/04:30pm SE 9 14 - - - - - - - 20.7 1019.4 0.0
16/04:00pm SE 8 13 - - - - - - - 21.1 1019.2 0.0
16/03:30pm SE 8 13 - - - - - - - 21.4 1019.2 0.0
16/03:00pm SE 8 15 - - - - - - - 21.9 1019.3 0.0
16/02:30pm SE 9 14 - - - - - - - 21.9 1019.6 0.0
16/02:00pm SE 9 13 - - - - - - - 21.4 1020.1 0.0
16/01:30pm SE 9 15 - - - - - - - 21.7 1020.4 0.0
16/01:00pm SE 9 12 - - - - - - - 21.9 1021.0 0.0
16/12:30pm SSE 7 11 - - - - - - - 22.3 1021.6 0.0
16/12:00pm SSE 8 12 - - - - - - - 22.2 1021.9 0.0
16/11:30am SSE 9 14 - - - - - Partly cloudy - 21.9 1022.4 0.0
16/11:00am SSE 10 14 - - - - - - - 21.7 1022.8 0.0
16/10:30am SSE 9 13 - - - - - - - 21.5 1023.1 0.0
16/10:00am SSE 10 16 - - - - - - - 21.3 1023.3 0.0
16/09:30am S 9 13 - - - - - - - 20.8 1023.4 0.0

Other formats

Comma delimited format used in spreadsheet applications
http://www.bom.gov.au/fwo/IDQ60701/IDQ60701.94367.axf

JavaScript Object Notation format (JSON) in row-major order
http://www.bom.gov.au/fwo/IDQ60701/IDQ60701.94367.json

Data quality

Most of these data are generated automatically and are frequently updated. Quality checks on data are not normally performed. It is possible for incorrect values to appear. Refer to information at About Latest Weather Observations and please check the disclaimer before using these data.